Atlantic - Newfoundland: Past 24 Hour Conditions

 

Twillingate

01:30 AM NDT 24 April 2014
This table is a summary of hourly weather conditions for the past 24 hours.
Date / Time
(NDT)
Wind(knots) Conditions Visibility(km) Pressure(kPa) Air tempC) Relative humidity(%) Dew pointC) Wind Chill
24 April 2014
1:30 ENE 21 N/A N/A 101.3 -1 81 -4 -9
0:30 ENE 17 gust 25 N/A N/A 101.3 -1 85 -4 -9
23 April 2014
23:30 ENE 14 gust 21 N/A N/A 101.3 -2 89 -3 -8
22:30 E 14 gust 19 N/A N/A 101.3 -1 82 -4 -8
21:30 ENE 16 gust 22 N/A N/A 101.3 -1 86 -3 -8
20:30 ENE 15 gust 24 N/A N/A 101.3 -1 85 -3 -8
19:30 E 13 gust 25 N/A N/A 101.3 0 82 -3 -6
18:30 E 16 gust 23 N/A N/A 101.3 0 80 -3 *
17:30 E 12 gust 23 N/A N/A 101.3 1 81 -2 *
16:30 ENE 14 gust 21 N/A N/A 101.2 1 79 -2 *
15:30 E 15 gust 22 N/A N/A 101.2 1 73 -3 *
14:30 E 10 gust 19 N/A N/A 101.3 1 74 -3 *
13:30 E 16 gust 25 N/A N/A 101.3 1 87 -1 *
12:30 ENE 12 gust 21 N/A N/A 101.3 1 87 -1 *
11:30 E 14 gust 23 N/A N/A 101.4 0 91 -1 *
10:30 E 16 gust 26 N/A N/A 101.4 0 92 -1 -7
9:30 E 10 gust 20 N/A N/A 101.4 0 91 -2 -6
8:30 ESE 15 gust 20 N/A N/A 101.4 -1 92 -2 -7
7:30 E 12 gust 19 N/A N/A 101.4 0 87 -2 -6
6:30 E 11 N/A N/A 101.3 0 86 -2 -6
5:30 E 11 gust 20 N/A N/A 101.3 0 83 -3 -6
4:30 ESE 9 gust 15 N/A N/A 101.3 0 78 -3 -5
3:30 ESE 11 gust 20 N/A N/A 101.3 0 76 -4 -5
2:30 E 12 gust 18 N/A N/A 101.3 0 77 -3 *
1:30 E 8 N/A N/A 101.3 0 80 -3 -4
 
Map of Atlantic - Newfoundland marine weather areas Southwestern Grand Banks - 44138 Banquereau - 44139 Tail of the Bank - 44140 Nickerson Bank - 44251 Northeast Burgeo Bank - 44255 Blanc-Sablon Airport Cap Whittle Chevery Natashquan Airport Heath Point Miscou Island Grand Étang Ingonish Beach North Mountain St.Paul Island J.A. Douglas McCurdy Sydney Airport Charlottetown Airport East Point North Cape Argentia Bonavista Burgeo Cape Race Corner Brook Daniel's Harbour Englee Ferolle Point La Scie Port aux Basques Rocky Harbour Sagona Island St. Anthony Airport St. John's Int'l Airport St. Lawrence Stephenville Airport Twillingate Winterland Wreckhouse Cartwright Airport Mary's Harbour Grates Cove Pool's Island Marticot Island Long Pond Îles de la Madeleine Airport
Legend: buoyBuoy land stationLand Station